Time;durP1;ratioP1;P1;durP2;ratioP2;P2;SDS_P1;SDS_P2;PMS_P1;PMS_P2;Temp;Humidity;BMP_temperature;BMP_pressure;BME280_temperature;BME280_humidity;BME280_pressure;Samples;Min_cycle;Max_cycle;Signal;HPM_P1;HPM_P2
2022/08/11 00:02:44;;;;;;;1.92;1.38;;;;;;;19.86;63.19;102153.28;6234049;28;20056;-77
2022/08/11 00:05:50;;;;;;;1.58;1.13;;;;;;;19.77;63.83;102155.63;6245407;28;20056;-77
2022/08/11 00:08:53;;;;;;;1.65;1.08;;;;;;;19.71;64.02;102165.84;6239085;28;20065;-77
2022/08/11 00:11:57;;;;;;;1.52;1.10;;;;;;;19.67;63.91;102161.72;6233973;28;20065;-77
2022/08/11 00:15:01;;;;;;;2.38;1.20;;;;;;;19.67;64.07;102156.38;6234855;28;20052;-77
2022/08/11 00:18:03;;;;;;;1.60;1.10;;;;;;;19.71;63.21;102161.41;6232837;28;20073;-77
2022/08/11 00:21:05;;;;;;;0.80;0.80;;;;;;;19.65;62.83;102145.81;6232770;28;20046;-77
2022/08/11 00:24:08;;;;;;;2.58;1.30;;;;;;;19.61;63.29;102152.31;6234399;28;20049;-77
2022/08/11 00:27:11;;;;;;;1.67;1.30;;;;;;;19.61;63.12;102154.97;6227918;28;20054;-77
2022/08/11 00:30:13;;;;;;;1.92;1.25;;;;;;;19.59;63.22;102164.03;6223445;28;20060;-77
2022/08/11 00:33:16;;;;;;;2.33;1.13;;;;;;;19.58;63.18;102157.84;6222740;28;20046;-77
2022/08/11 00:36:19;;;;;;;3.17;1.48;;;;;;;19.61;62.83;102159.44;6223520;28;20052;-77
2022/08/11 00:39:23;;;;;;;1.65;1.00;;;;;;;19.57;63.34;102165.91;6223017;28;20053;-77
2022/08/11 00:42:43;;;;;;;2.38;1.33;;;;;;;19.54;63.73;102169.66;6222969;28;20077;-77
2022/08/11 00:46:06;;;;;;;1.60;0.88;;;;;;;19.51;63.23;102161.88;6222782;28;20050;-77
2022/08/11 00:49:18;;;;;;;1.90;1.20;;;;;;;19.48;63.51;102162.06;6222697;28;20054;-77
2022/08/11 00:52:47;;;;;;;1.50;1.20;;;;;;;19.40;63.13;102167.94;6222775;28;20049;-77
2022/08/11 00:56:14;;;;;;;1.48;1.10;;;;;;;19.33;63.67;102174.63;6222741;28;20050;-77
2022/08/11 01:00:02;;;;;;;1.67;1.00;;;;;;;19.27;64.65;102178.56;6222847;28;20057;-77
2022/08/11 01:03:18;;;;;;;1.27;1.17;;;;;;;19.22;64.92;102171.84;6222958;28;20046;-77
2022/08/11 01:06:52;;;;;;;1.60;1.02;;;;;;;19.15;65.42;102168.72;6221997;28;20421;-76
2022/08/11 01:10:13;;;;;;;3.00;1.50;;;;;;;19.08;65.11;102166.59;6201920;28;20045;-76
2022/08/11 01:13:36;;;;;;;2.20;1.00;;;;;;;19.05;65.96;102164.97;6222206;28;20046;-76
2022/08/11 01:17:05;;;;;;;1.85;1.17;;;;;;;18.98;66.44;102171.66;6221819;28;20057;-76
2022/08/11 01:20:32;;;;;;;2.17;1.48;;;;;;;18.94;66.80;102170.13;6222262;28;20057;-76
2022/08/11 01:24:17;;;;;;;1.77;1.30;;;;;;;18.84;66.73;102175.22;6222097;28;20045;-76
2022/08/11 01:27:44;;;;;;;1.23;1.13;;;;;;;18.77;67.14;102175.75;6222032;28;20053;-76
2022/08/11 01:31:26;;;;;;;1.42;1.02;;;;;;;18.72;67.75;102173.38;6221698;28;20054;-76
2022/08/11 01:35:04;;;;;;;1.70;1.27;;;;;;;18.65;67.86;102177.34;6221800;28;20050;-76
2022/08/11 01:38:27;;;;;;;1.20;1.10;;;;;;;18.60;67.87;102174.97;6222299;28;20046;-76
2022/08/11 01:45:22;;;;;;;1.92;1.45;;;;;;;18.44;69.43;102177.78;6222845;28;20050;-75
2022/08/11 01:48:37;;;;;;;2.75;1.42;;;;;;;18.45;69.54;102179.50;6226809;28;20054;-76
2022/08/11 01:52:01;;;;;;;1.10;1.00;;;;;;;18.38;69.58;102177.31;6226479;28;20105;-76
2022/08/11 01:55:14;;;;;;;5.10;1.45;;;;;;;18.32;69.24;102175.03;6226500;28;20129;-76
2022/08/11 01:58:27;;;;;;;1.83;1.20;;;;;;;18.30;69.48;102177.78;6226379;28;20061;-76
2022/08/11 02:01:45;;;;;;;1.45;1.35;;;;;;;18.28;69.49;102169.06;6226200;28;20057;-76
2022/08/11 02:04:56;;;;;;;2.03;1.40;;;;;;;18.22;69.71;102175.63;6226332;28;20054;-76
2022/08/11 02:08:14;;;;;;;1.98;1.38;;;;;;;18.18;70.03;102174.09;6226203;28;20049;-76
2022/08/11 02:11:30;;;;;;;2.75;1.10;;;;;;;18.09;70.98;102172.00;6226435;28;20050;-76
2022/08/11 02:14:43;;;;;;;1.92;1.40;;;;;;;18.05;71.25;102174.97;6225776;28;20121;-76
2022/08/11 02:17:58;;;;;;;1.80;1.08;;;;;;;18.05;71.23;102169.63;6226034;28;20060;-76
2022/08/11 02:24:35;;;;;;;1.60;1.13;;;;;;;17.98;71.93;102171.81;6225858;28;20493;-76
2022/08/11 02:27:42;;;;;;;1.25;1.13;;;;;;;17.96;72.28;102171.91;6225694;28;20524;-76
2022/08/11 02:34:42;;;;;;;2.03;1.40;;;;;;;17.91;72.71;102168.69;6225718;28;20049;-76
2022/08/11 02:37:55;;;;;;;1.17;1.05;;;;;;;17.88;72.97;102173.34;6225361;28;20296;-76
2022/08/11 02:41:02;;;;;;;2.10;1.40;;;;;;;17.84;72.74;102162.03;6242217;28;20053;-76
2022/08/11 02:44:24;;;;;;;2.15;1.35;;;;;;;17.81;72.85;102164.03;6249723;28;20540;-76
2022/08/11 02:47:39;;;;;;;4.25;1.40;;;;;;;17.73;73.73;102169.78;6243948;28;20413;-76
2022/08/11 02:50:48;;;;;;;3.00;1.73;;;;;;;17.64;73.79;102162.34;6225769;28;20057;-76
2022/08/11 02:54:02;;;;;;;2.77;1.53;;;;;;;17.57;74.06;102161.84;6224930;28;20430;-76
2022/08/11 02:57:10;;;;;;;4.45;2.15;;;;;;;17.50;74.06;102164.03;6223909;28;20048;-76
2022/08/11 03:00:15;;;;;;;1.35;1.25;;;;;;;17.52;74.68;102168.41;6224720;28;20054;-76
2022/08/11 03:03:25;;;;;;;2.28;1.45;;;;;;;17.50;74.78;102164.03;6225115;28;20052;-76
2022/08/11 03:06:35;;;;;;;1.90;1.52;;;;;;;17.46;75.07;102169.63;6224667;28;20050;-76
2022/08/11 03:09:46;;;;;;;2.33;1.65;;;;;;;17.42;75.62;102173.41;6224768;28;20046;-76
2022/08/11 03:19:54;;;;;;;3.78;1.63;;;;;;;17.26;75.96;102178.78;6224503;28;20050;-76
2022/08/11 03:23:03;;;;;;;2.33;1.55;;;;;;;17.24;75.99;102178.88;6224521;28;20053;-76
2022/08/11 03:26:13;;;;;;;2.78;1.40;;;;;;;17.20;76.49;102177.31;6224355;28;20061;-76
2022/08/11 03:29:22;;;;;;;2.35;1.48;;;;;;;17.18;75.77;102179.25;6224316;28;20152;-76
2022/08/11 03:32:29;;;;;;;2.47;1.77;;;;;;;17.10;76.85;102180.63;6224266;28;20053;-76
2022/08/11 03:35:36;;;;;;;2.90;1.75;;;;;;;17.14;76.36;102180.34;6224001;28;20296;-76
2022/08/11 03:38:54;;;;;;;1.92;1.73;;;;;;;17.09;76.37;102173.59;6224424;28;20425;-76
2022/08/11 03:42:08;;;;;;;1.63;1.40;;;;;;;17.09;76.75;102173.59;6224005;28;20050;-76
2022/08/11 03:45:21;;;;;;;1.60;1.27;;;;;;;17.08;76.14;102171.88;6223751;28;20053;-76
2022/08/11 03:48:32;;;;;;;1.85;1.30;;;;;;;17.09;75.93;102169.16;6223904;28;20419;-76
2022/08/11 03:51:50;;;;;;;2.85;1.83;;;;;;;17.10;75.80;102170.84;6223830;28;20054;-76
2022/08/11 03:55:01;;;;;;;3.03;1.83;;;;;;;17.03;76.27;102168.63;6223858;28;20042;-76
2022/08/11 03:58:48;;;;;;;1.80;1.40;;;;;;;16.96;76.82;102174.31;6223736;28;20072;-76
2022/08/11 04:02:16;;;;;;;3.58;1.98;;;;;;;17.02;76.16;102174.88;6213263;28;20053;-76
2022/08/11 04:06:02;;;;;;;3.45;1.70;;;;;;;16.97;76.24;102175.16;6223569;28;20046;-76
2022/08/11 04:09:47;;;;;;;2.58;1.80;;;;;;;16.91;76.11;102165.75;6223098;28;20103;-76
2022/08/11 04:13:23;;;;;;;1.65;1.25;;;;;;;16.88;76.81;102167.72;6223516;28;20050;-76
2022/08/11 04:16:39;;;;;;;3.88;1.95;;;;;;;16.84;76.83;102167.03;6223003;28;20053;-76
2022/08/11 04:20:14;;;;;;;4.75;2.53;;;;;;;16.78;77.44;102172.69;6225899;28;20041;-76
2022/08/11 04:23:30;;;;;;;2.25;1.63;;;;;;;16.73;77.57;102178.25;6210737;28;20049;-76
2022/08/11 04:27:12;;;;;;;1.83;1.45;;;;;;;16.72;77.64;102173.91;6222738;28;20052;-76
2022/08/11 04:30:17;;;;;;;5.20;1.48;;;;;;;16.68;77.80;102175.00;6202950;28;20413;-76
2022/08/11 04:33:48;;;;;;;3.65;1.92;;;;;;;16.67;78.58;102170.63;6232347;28;20574;-76
2022/08/11 04:41:15;;;;;;;2.45;1.48;;;;;;;16.68;77.82;102171.47;6247297;28;20136;-76
2022/08/11 04:45:09;;;;;;;4.60;1.80;;;;;;;16.68;77.57;102167.03;6211338;28;20088;-76
2022/08/11 05:03:42;;;;;;;4.90;2.13;;;;;;;16.85;77.30;102158.16;6235780;28;20041;-75
2022/08/11 05:07:11;;;;;;;2.45;1.55;;;;;;;16.91;77.13;102165.75;6246809;28;20050;-75
2022/08/11 05:10:23;;;;;;;3.03;1.70;;;;;;;16.94;76.34;102167.34;6246488;28;20417;-75
2022/08/11 05:37:09;;;;;;;3.45;1.88;;;;;;;17.23;78.68;102173.66;6251579;28;20053;-76
2022/08/11 05:56:54;;;;;;;;;;;;;;;17.52;77.90;102171.91;6251411;28;20058;-75
2022/08/11 05:59:59;;;;;;;2.10;1.67;;;;;;;17.57;78.48;102156.53;6251180;28;19928;-75
2022/08/11 06:03:06;;;;;;;2.88;1.77;;;;;;;17.63;77.87;102172.16;6251046;28;20056;-75
2022/08/11 06:06:10;;;;;;;2.20;1.60;;;;;;;17.68;77.83;102178.03;6250560;28;20046;-75
2022/08/11 06:09:13;;;;;;;2.28;1.40;;;;;;;17.76;77.69;102174.97;6250992;28;20049;-75
2022/08/11 06:12:19;;;;;;;1.45;0.98;;;;;;;17.82;76.78;102177.22;6250380;28;20142;-75
2022/08/11 06:15:21;;;;;;;3.55;1.40;;;;;;;17.86;77.75;102161.94;6250443;28;20052;-75
2022/08/11 06:18:24;;;;;;;1.73;1.48;;;;;;;17.91;78.25;102175.81;6235865;28;20049;-75
2022/08/11 06:21:27;;;;;;;4.20;2.00;;;;;;;17.97;78.13;102170.97;6234862;28;20055;-75
2022/08/11 06:24:31;;;;;;;2.05;1.50;;;;;;;18.02;78.42;102161.84;6234926;28;20068;-74
2022/08/11 06:27:35;;;;;;;1.98;1.33;;;;;;;18.06;78.33;102166.88;6235623;28;20045;-77
2022/08/11 06:30:39;;;;;;;3.10;1.58;;;;;;;18.12;78.38;102163.84;6231822;28;20453;-75
2022/08/11 06:33:53;;;;;;;2.03;1.40;;;;;;;18.17;78.19;102161.75;6236758;28;20037;-75
2022/08/11 06:37:06;;;;;;;2.33;1.40;;;;;;;18.23;78.18;102171.16;6237676;28;20049;-74
2022/08/11 06:40:12;;;;;;;5.40;1.60;;;;;;;18.34;77.76;102173.13;6249930;28;20490;-75
2022/08/11 06:43:19;;;;;;;2.35;1.42;;;;;;;18.44;78.08;102182.22;6249979;28;20046;-74
2022/08/11 06:46:28;;;;;;;1.38;1.15;;;;;;;18.49;77.54;102174.84;6249813;28;20493;-74
2022/08/11 06:52:56;;;;;;;2.33;1.13;;;;;;;18.65;76.84;102180.88;6249970;28;20057;-74
2022/08/11 07:02:47;;;;;;;1.13;1.02;;;;;;;18.81;76.64;102178.13;6249818;28;20517;-75
2022/08/11 07:05:53;;;;;;;1.88;1.20;;;;;;;18.86;76.21;102176.00;6249542;28;20052;-75
2022/08/11 07:16:00;;;;;;;1.35;1.08;;;;;;;19.04;76.13;102175.75;6249097;28;20045;-74
2022/08/11 07:29:13;;;;;;;3.90;1.38;;;;;;;19.41;74.04;102177.66;6240491;28;20162;-72
2022/08/11 07:32:25;;;;;;;1.98;1.60;;;;;;;19.52;74.37;102174.22;6237711;28;20493;-71
2022/08/11 07:35:32;;;;;;;1.38;1.15;;;;;;;19.57;74.58;102176.59;6225421;28;20042;-71
2022/08/11 07:38:49;;;;;;;2.03;1.42;;;;;;;19.65;74.22;102175.13;6235352;28;20071;-71
2022/08/11 07:41:55;;;;;;;2.58;1.50;;;;;;;19.77;73.76;102171.63;6248611;28;20132;-72
2022/08/11 07:55:02;;;;;;;3.55;1.60;;;;;;;20.10;72.24;102174.72;6223611;28;20046;-71
2022/08/11 08:18:10;;;;;;;1.75;1.42;;;;;;;20.85;69.43;102166.59;6239608;28;20054;-73
2022/08/11 08:21:13;;;;;;;3.35;1.40;;;;;;;20.96;68.61;102167.53;6232874;28;20517;-72
2022/08/11 08:24:15;;;;;;;1.70;1.50;;;;;;;21.09;67.99;102167.47;6244050;28;20073;-72
2022/08/11 08:27:18;;;;;;;3.00;1.42;;;;;;;21.10;67.50;102169.16;6243506;28;20516;-70
2022/08/11 08:33:41;;;;;;;1.52;1.15;;;;;;;21.36;64.46;102159.22;6247389;28;20154;-72
2022/08/11 08:36:44;;;;;;;1.88;1.45;;;;;;;21.42;65.01;102160.56;6237086;28;20053;-71
2022/08/11 08:39:46;;;;;;;2.90;1.30;;;;;;;21.50;63.80;102167.03;6222766;28;20046;-71
2022/08/11 08:42:52;;;;;;;1.73;1.50;;;;;;;21.69;62.08;102154.88;6229126;28;20518;-72
2022/08/11 08:45:57;;;;;;;1.63;1.20;;;;;;;21.80;60.88;102162.91;6230283;28;20490;-72
2022/08/11 08:49:01;;;;;;;1.25;1.10;;;;;;;21.90;58.50;102147.88;6227520;28;20535;-72
2022/08/11 08:52:05;;;;;;;2.05;1.42;;;;;;;21.95;58.06;102155.53;6227145;28;20487;-72
2022/08/11 08:55:12;;;;;;;1.30;1.10;;;;;;;22.04;56.47;102150.28;6238809;28;20045;-71
2022/08/11 08:58:15;;;;;;;1.83;0.90;;;;;;;22.27;53.62;102140.44;6238621;28;20110;-71
2022/08/11 09:01:21;;;;;;;1.67;1.13;;;;;;;22.42;52.80;102142.84;6246674;28;20422;-72
2022/08/11 09:04:23;;;;;;;1.25;1.10;;;;;;;22.52;52.67;102147.31;6246675;28;20049;-74
2022/08/11 09:07:26;;;;;;;3.28;1.00;;;;;;;22.56;51.87;102149.75;6247045;28;20515;-73
2022/08/11 09:10:30;;;;;;;1.35;1.00;;;;;;;22.65;51.12;102141.81;6246612;28;20054;-73
2022/08/11 09:13:33;;;;;;;0.77;0.77;;;;;;;22.74;50.45;102151.78;6246933;28;20052;-72
2022/08/11 09:16:38;;;;;;;4.25;0.98;;;;;;;22.78;49.52;102142.50;6246588;28;20057;-72
2022/08/11 09:19:40;;;;;;;2.25;0.80;;;;;;;22.91;49.26;102138.84;6246649;28;20050;-72
2022/08/11 09:29:23;;;;;;;0.65;0.60;;;;;;;23.15;47.22;102125.19;6246471;28;20057;-73
2022/08/11 09:32:28;;;;;;;5.10;0.90;;;;;;;23.22;47.31;102124.56;6246269;28;20425;-72
2022/08/11 09:35:32;;;;;;;1.42;0.90;;;;;;;23.22;46.60;102118.34;6245490;28;20108;-72
2022/08/11 09:41:54;;;;;;;;;;;;;;;23.68;43.44;102120.63;6222143;28;20058;-73
2022/08/11 09:44:54;;;;;;;1.73;0.70;;;;;;;23.74;42.29;102103.97;6222187;28;19929;-72
2022/08/11 09:47:58;;;;;;;0.60;0.60;;;;;;;23.70;42.70;102115.94;6221447;28;20053;-73
2022/08/11 09:51:01;;;;;;;0.40;0.40;;;;;;;23.69;43.28;102106.22;6221278;28;20409;-73
2022/08/11 09:54:05;;;;;;;2.88;0.68;;;;;;;23.76;42.86;102111.91;6221810;28;20049;-72
2022/08/11 10:00:31;;;;;;;0.77;0.73;;;;;;;23.92;43.22;102098.81;6221572;28;20085;-73
2022/08/11 10:03:41;;;;;;;0.77;0.70;;;;;;;23.93;42.16;102095.13;6229852;28;20050;-73
2022/08/11 10:07:05;;;;;;;0.60;0.60;;;;;;;23.99;42.07;102089.25;6231906;28;20073;-72
2022/08/11 10:10:08;;;;;;;1.10;0.77;;;;;;;24.10;41.55;102085.59;6243933;28;20126;-73
2022/08/11 10:13:14;;;;;;;1.17;0.40;;;;;;;24.16;42.28;102089.53;6236604;28;20053;-72
2022/08/11 10:16:16;;;;;;;0.93;0.90;;;;;;;24.24;41.03;102078.97;6225807;28;20042;-72
2022/08/11 10:19:20;;;;;;;1.13;0.80;;;;;;;24.23;40.56;102074.59;6237693;28;20045;-73
2022/08/11 10:33:58;;;;;;;0.50;0.50;;;;;;;24.61;40.58;102062.19;6249992;28;20046;-72
2022/08/11 10:35:47;;;;;;;0.73;0.73;;;;;;;24.96;40.69;102049.03;6234048;28;20053;-73
2022/08/11 10:38:51;;;;;;;0.77;0.68;;;;;;;25.01;39.95;102043.22;6232138;28;20060;-70
2022/08/11 10:48:37;;;;;;;0.90;0.70;;;;;;;25.13;39.48;102039.41;6249570;28;20088;-73
2022/08/11 11:01:41;;;;;;;0.90;0.85;;;;;;;25.51;38.56;102021.41;6247893;28;20460;-72
2022/08/11 11:05:00;;;;;;;0.50;0.50;;;;;;;25.69;38.06;102024.16;6249113;28;20046;-72
2022/08/11 11:18:21;;;;;;;0.60;0.60;;;;;;;26.50;34.58;102017.00;6248158;28;20053;-72
2022/08/11 11:21:24;;;;;;;1.05;0.73;;;;;;;26.58;34.93;102016.25;6249193;28;20492;-71
2022/08/11 11:24:41;;;;;;;0.80;0.80;;;;;;;26.67;34.08;102015.31;6248705;28;20057;-71
2022/08/11 11:27:54;;;;;;;0.50;0.50;;;;;;;26.65;34.69;102009.19;6248843;28;20053;-72
2022/08/11 11:31:10;;;;;;;0.55;0.45;;;;;;;26.81;33.45;101998.56;6248508;28;20045;-72
2022/08/11 11:34:28;;;;;;;0.43;0.43;;;;;;;27.02;33.03;101998.16;6248533;28;20053;-72
2022/08/11 11:37:32;;;;;;;0.50;0.50;;;;;;;27.33;32.80;102007.66;6248714;28;20049;-72
2022/08/11 11:40:36;;;;;;;0.73;0.70;;;;;;;27.46;31.56;102005.38;6248594;28;20056;-72
2022/08/11 11:43:39;;;;;;;0.63;0.47;;;;;;;27.66;31.95;101998.72;6248656;28;20050;-72
2022/08/11 11:46:44;;;;;;;0.70;0.68;;;;;;;27.96;31.94;102000.00;6248078;28;20432;-71
2022/08/11 11:49:47;;;;;;;1.17;0.80;;;;;;;28.23;31.14;101996.16;6248583;28;20045;-72
2022/08/11 11:52:48;;;;;;;0.90;0.60;;;;;;;28.45;31.92;101988.44;6248202;28;20049;-71
2022/08/11 11:55:52;;;;;;;1.75;0.85;;;;;;;28.68;30.20;101989.44;6248051;28;20050;-72
2022/08/11 12:02:15;;;;;;;0.98;0.65;;;;;;;29.33;29.38;101983.88;6230883;28;20045;-71
2022/08/11 12:05:18;;;;;;;0.80;0.80;;;;;;;29.70;29.19;101978.84;6231442;28;20049;-71
2022/08/11 12:08:21;;;;;;;0.68;0.68;;;;;;;29.97;28.51;101980.22;6239595;28;20053;-72
2022/08/11 12:14:46;;;;;;;1.13;0.70;;;;;;;30.48;27.33;101981.38;6244909;28;20042;-73
2022/08/11 12:17:48;;;;;;;0.50;0.50;;;;;;;30.52;25.60;101982.72;6239576;28;20049;-71
2022/08/11 12:20:50;;;;;;;1.02;0.70;;;;;;;30.58;26.35;101975.69;6247559;28;20445;-72
2022/08/11 12:27:22;;;;;;;0.55;0.50;;;;;;;30.62;27.07;101962.63;6247705;28;20513;-71
2022/08/11 12:30:24;;;;;;;1.00;0.80;;;;;;;30.66;27.46;101955.75;6247066;28;20542;-73
2022/08/11 12:33:27;;;;;;;0.82;0.60;;;;;;;30.83;26.71;101949.19;6245438;28;20050;-72
2022/08/11 12:36:33;;;;;;;0.70;0.60;;;;;;;30.95;26.34;101949.56;6238952;28;20041;-70
2022/08/11 12:46:23;;;;;;;1.00;0.77;;;;;;;30.83;25.69;101933.72;6222158;28;20096;-73
2022/08/11 12:52:52;;;;;;;0.93;0.80;;;;;;;30.93;26.54;101925.31;6222585;28;20089;-72
2022/08/11 13:05:57;;;;;;;1.80;1.00;;;;;;;32.10;26.74;101903.50;6222247;28;20046;-72
2022/08/11 13:08:59;;;;;;;0.75;0.60;;;;;;;32.15;25.63;101906.47;6222382;28;20050;-72
2022/08/11 13:15:23;;;;;;;0.82;0.60;;;;;;;32.63;24.94;101897.66;6221960;28;20125;-72
2022/08/11 13:18:26;;;;;;;1.30;0.75;;;;;;;32.58;25.05;101898.25;6222371;28;20140;-72
2022/08/11 13:21:28;;;;;;;0.88;0.77;;;;;;;32.39;24.65;101894.38;6222213;28;20054;-72
2022/08/11 13:24:32;;;;;;;0.93;0.77;;;;;;;32.29;24.40;101891.09;6221888;28;20053;-73
2022/08/11 13:27:36;;;;;;;1.70;0.93;;;;;;;32.29;24.90;101891.09;6221936;28;20426;-72
2022/08/11 13:34:00;;;;;;;0.82;0.80;;;;;;;32.54;25.03;101886.09;6221868;28;20054;-72
2022/08/11 13:37:04;;;;;;;0.95;0.73;;;;;;;32.80;24.56;101882.69;6221869;28;20395;-72
2022/08/11 13:40:07;;;;;;;1.35;0.80;;;;;;;33.11;23.28;101886.81;6222117;28;20054;-72
2022/08/11 13:43:09;;;;;;;0.70;0.70;;;;;;;33.33;22.67;101883.75;6226530;28;20049;-73
2022/08/11 13:46:19;;;;;;;0.77;0.60;;;;;;;33.19;23.07;101882.03;6226325;28;20046;-72
2022/08/11 13:49:22;;;;;;;1.75;0.80;;;;;;;32.80;23.06;101886.25;6227089;28;20049;-73
2022/08/11 13:52:25;;;;;;;0.88;0.60;;;;;;;32.70;23.34;101876.75;6226469;28;20060;-73
2022/08/11 13:55:26;;;;;;;0.60;0.60;;;;;;;32.72;23.30;101880.13;6226392;28;20046;-73
2022/08/11 13:58:29;;;;;;;0.60;0.60;;;;;;;32.67;22.73;101869.84;6226521;28;20050;-73
2022/08/11 14:01:34;;;;;;;1.10;0.82;;;;;;;32.65;23.27;101854.72;6226132;28;20046;-72
2022/08/11 14:04:41;;;;;;;0.50;0.50;;;;;;;32.58;22.70;101860.16;6226158;28;20537;-73
2022/08/11 14:07:49;;;;;;;1.10;0.80;;;;;;;32.96;22.90;101854.28;6226235;28;20139;-72
2022/08/11 14:13:36;;;;;;;1.63;0.90;;;;;;;33.31;23.24;101860.50;6226274;28;20049;-73
2022/08/11 14:14:20;;;;;;;1.00;0.90;;;;;;;33.58;22.71;101847.81;6225592;28;20070;-72
2022/08/11 14:17:23;;;;;;;1.50;0.60;;;;;;;33.70;23.22;101853.47;6225973;28;20049;-72
2022/08/11 14:22:05;;;;;;;0.88;0.60;;;;;;;33.83;21.87;101851.59;6226023;28;20056;-71
2022/08/11 14:23:48;;;;;;;1.02;0.70;;;;;;;33.71;20.71;101847.00;6225489;28;20143;-72
2022/08/11 14:26:50;;;;;;;0.77;0.60;;;;;;;33.48;21.93;101847.38;6225764;28;20080;-72
2022/08/11 14:29:53;;;;;;;1.05;0.73;;;;;;;33.51;22.01;101839.59;6225587;28;20188;-72
2022/08/11 14:32:57;;;;;;;1.30;0.88;;;;;;;33.53;21.83;101833.97;6225731;28;20061;-72
2022/08/11 14:35:58;;;;;;;0.60;0.60;;;;;;;33.66;22.10;101835.84;6224855;28;20053;-72
2022/08/11 14:39:03;;;;;;;1.30;0.90;;;;;;;33.50;21.54;101837.94;6225710;28;20054;-73
2022/08/11 14:48:47;;;;;;;0.93;0.70;;;;;;;34.20;20.00;101819.31;6225267;28;20045;-73
2022/08/11 14:51:49;;;;;;;0.50;0.50;;;;;;;34.21;21.35;101823.72;6236916;28;20053;-71
2022/08/11 14:58:15;;;;;;;0.50;0.50;;;;;;;34.30;20.16;101810.69;6234456;28;20073;-73
2022/08/11 15:04:38;;;;;;;2.20;0.60;;;;;;;34.33;20.42;101804.78;6224890;28;20501;-74
2022/08/11 15:07:41;;;;;;;1.88;1.00;;;;;;;33.96;19.10;101803.59;6224676;28;20042;-73
2022/08/11 15:10:42;;;;;;;0.75;0.70;;;;;;;33.91;19.97;101811.53;6224869;28;20050;-73
2022/08/11 15:13:44;;;;;;;0.85;0.85;;;;;;;33.93;21.33;101804.84;6239552;28;20049;-74
2022/08/11 15:47:18;;;;;;;1.95;0.70;;;;;;;33.53;22.05;101772.09;6198011;28;20050;-74
2022/08/11 15:50:20;;;;;;;1.23;0.95;;;;;;;33.55;21.25;101777.34;6248300;28;20053;-74
2022/08/11 15:53:29;;;;;;;1.15;0.80;;;;;;;33.54;20.44;101771.03;6248607;28;20139;-74
2022/08/11 15:56:32;;;;;;;1.50;0.70;;;;;;;33.51;20.75;101762.44;6248059;28;20414;-73
2022/08/11 16:06:33;;;;;;;0.60;0.60;;;;;;;33.59;21.45;101764.97;6172465;28;20047;-77
2022/08/11 16:09:40;;;;;;;1.30;0.90;;;;;;;33.62;21.48;101763.72;6247962;28;20072;-77
2022/08/11 16:16:12;;;;;;;1.13;0.80;;;;;;;33.65;21.49;101755.09;6248112;28;20045;-76
2022/08/11 16:16:15;;;;;;;1.60;0.90;;;;;;;33.72;21.53;101753.22;6247409;28;20052;-77
2022/08/11 16:19:18;;;;;;;1.25;0.80;;;;;;;33.44;22.27;101748.81;6248034;28;20140;-77
2022/08/11 16:22:33;;;;;;;0.80;0.75;;;;;;;33.23;21.96;101749.81;6247980;28;20060;-76
2022/08/11 16:25:36;;;;;;;0.60;0.60;;;;;;;33.32;22.43;101748.56;6247585;28;20132;-77
2022/08/11 16:28:40;;;;;;;1.35;0.80;;;;;;;33.23;22.02;101746.25;6247610;28;20049;-77
2022/08/11 16:32:15;;;;;;;0.88;0.73;;;;;;;33.13;21.92;101743.09;6247610;28;20056;-77
2022/08/11 16:38:38;;;;;;;0.63;0.63;;;;;;;32.79;22.63;101736.66;6247847;28;20057;-76
2022/08/11 16:48:23;;;;;;;0.68;0.65;;;;;;;32.23;22.98;101732.22;6247677;28;20041;-77
2022/08/11 16:51:24;;;;;;;1.10;1.00;;;;;;;32.05;23.54;101730.03;6247080;28;20045;-76
2022/08/11 16:54:26;;;;;;;1.08;0.80;;;;;;;32.03;23.95;101729.41;6247104;28;20049;-77
2022/08/11 17:00:50;;;;;;;0.98;0.68;;;;;;;31.92;25.07;101731.81;6247013;28;20049;-76
2022/08/11 17:14:12;;;;;;;7.90;1.50;;;;;;;31.39;26.74;101718.63;6246590;28;20042;-76
2022/08/11 17:17:16;;;;;;;1.00;0.80;;;;;;;31.30;27.20;101719.81;6246043;28;20045;-76
2022/08/11 17:20:18;;;;;;;0.73;0.70;;;;;;;31.24;26.72;101725.97;6246824;28;20452;-81
2022/08/11 17:30:05;;;;;;;1.73;0.90;;;;;;;30.94;26.11;101711.69;6246129;28;20576;-76
2022/08/11 17:36:26;;;;;;;4.15;0.88;;;;;;;30.69;27.99;101714.69;6246390;28;20136;-77
2022/08/11 17:39:31;;;;;;;1.27;1.00;;;;;;;30.57;27.66;101710.81;6246642;28;20053;-77
2022/08/11 17:49:18;;;;;;;0.82;0.65;;;;;;;30.24;29.32;101713.06;6247841;28;20057;-76
2022/08/11 18:05:46;;;;;;;1.20;0.80;;;;;;;29.74;29.75;101715.44;6247291;28;20042;-76
